sensor_id;sensor_type;location;lat;lon;timestamp;noise_LAeq;noise_LA_min;noise_LA_max;noise_LA01;noise_LA95
70454;Laerm;57915;47.174;14.680;2023-02-13T00:00:23;55.52;41.97;67.86;;
70454;Laerm;57915;47.174;14.680;2023-02-13T00:01:25;43.88;42.29;45.42;;
70454;Laerm;57915;47.174;14.680;2023-02-13T00:02:25;43.64;42.13;47.27;;
70454;Laerm;57915;47.174;14.680;2023-02-13T00:03:27;62.19;41.93;76.09;;
70454;Laerm;57915;47.174;14.680;2023-02-13T00:04:27;48.81;42.33;64.56;;
70454;Laerm;57915;47.174;14.680;2023-02-13T00:05:29;43.55;42.45;45.03;;
70454;Laerm;57915;47.174;14.680;2023-02-13T00:06:29;43.80;42.59;46.04;;
70454;Laerm;57915;47.174;14.680;2023-02-13T00:07:31;43.80;41.97;45.46;;
70454;Laerm;57915;47.174;14.680;2023-02-13T00:08:31;43.05;42.24;44.02;;
70454;Laerm;57915;47.174;14.680;2023-02-13T00:09:33;42.94;42.01;43.78;;
70454;Laerm;57915;47.174;14.680;2023-02-13T00:10:33;43.02;42.13;43.94;;
70454;Laerm;57915;47.174;14.680;2023-02-13T00:11:35;42.90;42.03;43.97;;
70454;Laerm;57915;47.174;14.680;2023-02-13T00:12:37;43.13;42.06;44.89;;
70454;Laerm;57915;47.174;14.680;2023-02-13T00:13:38;43.57;42.25;48.21;;
70454;Laerm;57915;47.174;14.680;2023-02-13T00:14:39;43.25;42.35;44.49;;
70454;Laerm;57915;47.174;14.680;2023-02-13T00:15:40;43.27;42.28;44.39;;
70454;Laerm;57915;47.174;14.680;2023-02-13T00:16:41;43.10;42.01;44.11;;
70454;Laerm;57915;47.174;14.680;2023-02-13T00:17:42;43.16;42.27;44.84;;
70454;Laerm;57915;47.174;14.680;2023-02-13T00:18:43;43.04;41.96;44.02;;
70454;Laerm;57915;47.174;14.680;2023-02-13T00:19:44;42.96;42.04;44.00;;
70454;Laerm;57915;47.174;14.680;2023-02-13T00:20:45;42.81;41.96;43.72;;
70454;Laerm;57915;47.174;14.680;2023-02-13T00:21:56;42.95;41.83;45.10;;
70454;Laerm;57915;47.174;14.680;2023-02-13T00:22:57;60.70;42.24;74.63;;
70454;Laerm;57915;47.174;14.680;2023-02-13T00:23:58;43.64;42.33;46.81;;
70454;Laerm;57915;47.174;14.680;2023-02-13T00:24:59;43.64;41.90;46.63;;
70454;Laerm;57915;47.174;14.680;2023-02-13T00:26:03;44.21;42.44;48.81;;
70454;Laerm;57915;47.174;14.680;2023-02-13T00:27:04;46.23;42.63;50.71;;
70454;Laerm;57915;47.174;14.680;2023-02-13T00:28:06;43.06;41.83;47.03;;
70454;Laerm;57915;47.174;14.680;2023-02-13T00:29:07;42.45;41.56;44.29;;
70454;Laerm;57915;47.174;14.680;2023-02-13T00:30:09;42.35;41.57;43.92;;
70454;Laerm;57915;47.174;14.680;2023-02-13T00:31:11;42.29;41.44;47.72;;
70454;Laerm;57915;47.174;14.680;2023-02-13T00:32:13;42.44;41.50;47.23;;
70454;Laerm;57915;47.174;14.680;2023-02-13T00:33:13;42.27;41.52;43.49;;
70454;Laerm;57915;47.174;14.680;2023-02-13T00:34:15;42.47;41.56;44.92;;
70454;Laerm;57915;47.174;14.680;2023-02-13T00:35:15;43.77;41.98;48.78;;
70454;Laerm;57915;47.174;14.680;2023-02-13T00:36:17;43.26;41.97;44.92;;
70454;Laerm;57915;47.174;14.680;2023-02-13T00:37:18;43.89;42.42;49.06;;
70454;Laerm;57915;47.174;14.680;2023-02-13T00:38:20;44.42;41.48;48.00;;
70454;Laerm;57915;47.174;14.680;2023-02-13T00:39:20;60.59;41.49;74.05;;
70454;Laerm;57915;47.174;14.680;2023-02-13T00:40:21;42.40;41.51;45.10;;
70454;Laerm;57915;47.174;14.680;2023-02-13T00:41:22;42.25;41.42;43.03;;
70454;Laerm;57915;47.174;14.680;2023-02-13T00:42:23;42.36;41.61;43.62;;
70454;Laerm;57915;47.174;14.680;2023-02-13T00:43:27;42.36;41.57;43.58;;
70454;Laerm;57915;47.174;14.680;2023-02-13T00:44:28;42.46;41.61;43.94;;
70454;Laerm;57915;47.174;14.680;2023-02-13T00:45:29;42.87;41.75;45.82;;
70454;Laerm;57915;47.174;14.680;2023-02-13T00:46:30;42.56;41.66;46.44;;
70454;Laerm;57915;47.174;14.680;2023-02-13T00:47:31;42.53;41.65;44.71;;
70454;Laerm;57915;47.174;14.680;2023-02-13T00:48:33;42.59;41.69;43.85;;
70454;Laerm;57915;47.174;14.680;2023-02-13T00:49:33;42.91;41.82;47.41;;
70454;Laerm;57915;47.174;14.680;2023-02-13T00:50:35;42.71;41.81;44.52;;
70454;Laerm;57915;47.174;14.680;2023-02-13T00:51:35;42.91;41.87;45.60;;
70454;Laerm;57915;47.174;14.680;2023-02-13T00:52:37;43.26;41.94;47.76;;
70454;Laerm;57915;47.174;14.680;2023-02-13T00:53:37;42.78;41.92;45.08;;
70454;Laerm;57915;47.174;14.680;2023-02-13T00:54:39;42.71;41.68;47.32;;
70454;Laerm;57915;47.174;14.680;2023-02-13T00:55:39;59.82;41.87;71.55;;
70454;Laerm;57915;47.174;14.680;2023-02-13T00:56:41;43.09;41.94;46.80;;
70454;Laerm;57915;47.174;14.680;2023-02-13T00:57:41;43.02;41.98;45.68;;
70454;Laerm;57915;47.174;14.680;2023-02-13T00:58:44;43.32;41.96;50.94;;
70454;Laerm;57915;47.174;14.680;2023-02-13T00:59:45;42.76;41.90;43.96;;
70454;Laerm;57915;47.174;14.680;2023-02-13T01:00:46;42.63;41.61;45.72;;
70454;Laerm;57915;47.174;14.680;2023-02-13T01:01:47;43.04;41.86;47.05;;
70454;Laerm;57915;47.174;14.680;2023-02-13T01:02:48;42.82;41.92;44.33;;
70454;Laerm;57915;47.174;14.680;2023-02-13T01:03:49;42.96;42.03;44.99;;
70454;Laerm;57915;47.174;14.680;2023-02-13T01:04:50;42.88;41.94;43.72;;
70454;Laerm;57915;47.174;14.680;2023-02-13T01:05:51;42.77;41.83;44.60;;
70454;Laerm;57915;47.174;14.680;2023-02-13T01:06:52;42.74;41.81;44.06;;
70454;Laerm;57915;47.174;14.680;2023-02-13T01:07:53;42.84;41.94;44.85;;
70454;Laerm;57915;47.174;14.680;2023-02-13T01:08:54;43.29;42.10;49.01;;
70454;Laerm;57915;47.174;14.680;2023-02-13T01:09:55;43.84;42.04;49.14;;
70454;Laerm;57915;47.174;14.680;2023-02-13T01:10:56;42.75;41.89;44.37;;
70454;Laerm;57915;47.174;14.680;2023-02-13T01:11:57;42.92;42.13;43.97;;
70454;Laerm;57915;47.174;14.680;2023-02-13T01:12:58;43.34;42.16;44.50;;
70454;Laerm;57915;47.174;14.680;2023-02-13T01:14:00;43.39;42.37;44.82;;
70454;Laerm;57915;47.174;14.680;2023-02-13T01:15:01;53.04;42.77;64.67;;
70454;Laerm;57915;47.174;14.680;2023-02-13T01:16:02;44.68;42.80;48.58;;
70454;Laerm;57915;47.174;14.680;2023-02-13T01:17:03;44.75;42.86;49.37;;
70454;Laerm;57915;47.174;14.680;2023-02-13T01:18:04;43.68;42.37;45.19;;
70454;Laerm;57915;47.174;14.680;2023-02-13T01:19:05;43.77;42.67;45.82;;
70454;Laerm;57915;47.174;14.680;2023-02-13T01:20:06;44.45;42.74;49.02;;
70454;Laerm;57915;47.174;14.680;2023-02-13T01:21:08;43.69;42.78;46.91;;
70454;Laerm;57915;47.174;14.680;2023-02-13T01:22:14;43.53;42.57;44.88;;
70454;Laerm;57915;47.174;14.680;2023-02-13T01:23:15;43.67;42.61;46.40;;
70454;Laerm;57915;47.174;14.680;2023-02-13T01:24:16;43.77;42.33;45.39;;
70454;Laerm;57915;47.174;14.680;2023-02-13T01:25:18;43.69;42.34;44.78;;
70454;Laerm;57915;47.174;14.680;2023-02-13T01:26:20;44.04;42.62;47.46;;
70454;Laerm;57915;47.174;14.680;2023-02-13T01:27:22;44.48;43.02;47.64;;
70454;Laerm;57915;47.174;14.680;2023-02-13T01:28:23;43.98;42.97;45.40;;
70454;Laerm;57915;47.174;14.680;2023-02-13T01:29:25;44.54;42.95;47.99;;
70454;Laerm;57915;47.174;14.680;2023-02-13T01:30:26;43.84;42.69;46.34;;
70454;Laerm;57915;47.174;14.680;2023-02-13T01:31:27;44.09;42.84;47.58;;
70454;Laerm;57915;47.174;14.680;2023-02-13T01:32:28;44.61;42.93;48.83;;
70454;Laerm;57915;47.174;14.680;2023-02-13T01:33:29;44.19;42.82;47.15;;
70454;Laerm;57915;47.174;14.680;2023-02-13T01:34:30;44.03;43.02;45.67;;
70454;Laerm;57915;47.174;14.680;2023-02-13T01:35:31;59.28;42.94;73.13;;
70454;Laerm;57915;47.174;14.680;2023-02-13T01:36:32;45.75;42.90;56.41;;
70454;Laerm;57915;47.174;14.680;2023-02-13T01:37:33;43.94;42.91;45.63;;
70454;Laerm;57915;47.174;14.680;2023-02-13T01:38:34;43.83;42.89;45.26;;
70454;Laerm;57915;47.174;14.680;2023-02-13T01:39:35;43.64;42.59;44.81;;
70454;Laerm;57915;47.174;14.680;2023-02-13T01:40:42;43.72;42.78;45.95;;
70454;Laerm;57915;47.174;14.680;2023-02-13T01:41:44;52.72;42.92;64.52;;
70454;Laerm;57915;47.174;14.680;2023-02-13T01:42:44;43.73;42.79;45.72;;
70454;Laerm;57915;47.174;14.680;2023-02-13T01:43:47;52.78;42.90;63.82;;
70454;Laerm;57915;47.174;14.680;2023-02-13T01:44:50;43.91;42.74;46.94;;
70454;Laerm;57915;47.174;14.680;2023-02-13T01:45:53;43.65;42.75;45.07;;
70454;Laerm;57915;47.174;14.680;2023-02-13T01:46:55;43.99;42.62;49.03;;
70454;Laerm;57915;47.174;14.680;2023-02-13T01:47:57;43.59;42.71;47.07;;
70454;Laerm;57915;47.174;14.680;2023-02-13T01:49:01;54.45;42.66;67.55;;
70454;Laerm;57915;47.174;14.680;2023-02-13T01:50:05;44.33;42.68;49.51;;
70454;Laerm;57915;47.174;14.680;2023-02-13T01:51:08;43.96;42.81;46.55;;
70454;Laerm;57915;47.174;14.680;2023-02-13T01:52:10;43.83;42.69;47.45;;
70454;Laerm;57915;47.174;14.680;2023-02-13T01:53:12;44.08;42.77;47.12;;
70454;Laerm;57915;47.174;14.680;2023-02-13T01:54:15;44.15;42.67;48.36;;
70454;Laerm;57915;47.174;14.680;2023-02-13T01:55:17;44.45;43.01;47.45;;
70454;Laerm;57915;47.174;14.680;2023-02-13T01:56:20;43.83;42.81;45.19;;
70454;Laerm;57915;47.174;14.680;2023-02-13T01:57:22;44.43;42.92;49.60;;
70454;Laerm;57915;47.174;14.680;2023-02-13T01:58:25;46.26;43.26;51.14;;
70454;Laerm;57915;47.174;14.680;2023-02-13T01:59:27;46.30;42.86;54.43;;
70454;Laerm;57915;47.174;14.680;2023-02-13T02:00:31;44.28;42.89;49.98;;
70454;Laerm;57915;47.174;14.680;2023-02-13T02:01:33;43.65;42.78;46.34;;
70454;Laerm;57915;47.174;14.680;2023-02-13T02:02:36;43.78;42.68;46.31;;
70454;Laerm;57915;47.174;14.680;2023-02-13T02:03:39;43.59;42.71;45.09;;
70454;Laerm;57915;47.174;14.680;2023-02-13T02:04:42;43.87;42.70;46.28;;
70454;Laerm;57915;47.174;14.680;2023-02-13T02:05:43;43.55;42.66;44.53;;
70454;Laerm;57915;47.174;14.680;2023-02-13T02:06:45;59.10;42.85;73.02;;
70454;Laerm;57915;47.174;14.680;2023-02-13T02:07:47;50.37;42.99;61.40;;
70454;Laerm;57915;47.174;14.680;2023-02-13T02:08:49;44.58;42.81;50.45;;
70454;Laerm;57915;47.174;14.680;2023-02-13T02:09:52;43.46;42.48;44.88;;
70454;Laerm;57915;47.174;14.680;2023-02-13T02:10:56;43.38;42.44;44.19;;
70454;Laerm;57915;47.174;14.680;2023-02-13T02:12:01;43.33;42.52;46.17;;
70454;Laerm;57915;47.174;14.680;2023-02-13T02:13:06;43.27;42.51;44.16;;
70454;Laerm;57915;47.174;14.680;2023-02-13T02:14:07;44.37;42.52;53.24;;
70454;Laerm;57915;47.174;14.680;2023-02-13T02:15:09;61.31;42.79;76.35;;
70454;Laerm;57915;47.174;14.680;2023-02-13T02:16:11;43.90;42.55;47.63;;
70454;Laerm;57915;47.174;14.680;2023-02-13T02:17:12;56.67;42.91;69.75;;
70454;Laerm;57915;47.174;14.680;2023-02-13T02:18:13;43.79;42.21;46.15;;
70454;Laerm;57915;47.174;14.680;2023-02-13T02:19:18;43.18;42.29;45.44;;
70454;Laerm;57915;47.174;14.680;2023-02-13T02:20:23;43.22;42.30;45.22;;
70454;Laerm;57915;47.174;14.680;2023-02-13T02:21:40;43.33;42.37;44.73;;
70454;Laerm;57915;47.174;14.680;2023-02-13T02:22:59;43.44;42.33;45.97;;
70454;Laerm;57915;47.174;14.680;2023-02-13T02:24:13;43.75;42.20;47.60;;
70454;Laerm;57915;47.174;14.680;2023-02-13T02:25:30;55.12;42.57;68.13;;
70454;Laerm;57915;47.174;14.680;2023-02-13T02:30:49;43.28;42.22;46.14;;
70454;Laerm;57915;47.174;14.680;2023-02-13T02:32:01;43.08;42.20;45.86;;
70454;Laerm;57915;47.174;14.680;2023-02-13T02:33:09;42.86;41.99;43.88;;
70454;Laerm;57915;47.174;14.680;2023-02-13T02:34:16;43.21;41.90;46.44;;
70454;Laerm;57915;47.174;14.680;2023-02-13T02:35:22;43.08;41.97;44.85;;
70454;Laerm;57915;47.174;14.680;2023-02-13T02:36:28;42.82;42.12;44.35;;
70454;Laerm;57915;47.174;14.680;2023-02-13T02:37:37;43.07;42.12;45.72;;
70454;Laerm;57915;47.174;14.680;2023-02-13T02:38:46;55.42;42.19;68.90;;
70454;Laerm;57915;47.174;14.680;2023-02-13T02:39:56;56.44;42.11;70.10;;
70454;Laerm;57915;47.174;14.680;2023-02-13T02:41:04;53.85;42.32;66.73;;
70454;Laerm;57915;47.174;14.680;2023-02-13T02:42:09;43.68;42.35;46.32;;
70454;Laerm;57915;47.174;14.680;2023-02-13T02:43:23;43.89;42.46;50.59;;
70454;Laerm;57915;47.174;14.680;2023-02-13T02:44:37;43.25;42.05;45.42;;
70454;Laerm;57915;47.174;14.680;2023-02-13T02:45:42;54.34;42.04;68.26;;
70454;Laerm;57915;47.174;14.680;2023-02-13T02:46:53;43.33;42.30;46.57;;
70454;Laerm;57915;47.174;14.680;2023-02-13T02:48:27;43.30;42.06;46.73;;
70454;Laerm;57915;47.174;14.680;2023-02-13T02:49:49;52.78;42.62;67.59;;
70454;Laerm;57915;47.174;14.680;2023-02-13T02:51:02;49.66;44.34;54.90;;
70454;Laerm;57915;47.174;14.680;2023-02-13T02:52:06;45.00;42.59;51.38;;
70454;Laerm;57915;47.174;14.680;2023-02-13T02:53:13;57.91;42.52;71.79;;
70454;Laerm;57915;47.174;14.680;2023-02-13T02:54:18;43.49;42.46;45.75;;
70454;Laerm;57915;47.174;14.680;2023-02-13T02:55:41;43.24;42.30;44.44;;
70454;Laerm;57915;47.174;14.680;2023-02-13T02:56:44;43.35;42.30;45.53;;
70454;Laerm;57915;47.174;14.680;2023-02-13T02:57:46;43.86;42.69;47.47;;
70454;Laerm;57915;47.174;14.680;2023-02-13T02:59:07;43.61;42.53;48.61;;
70454;Laerm;57915;47.174;14.680;2023-02-13T03:00:30;43.51;42.52;44.80;;
70454;Laerm;57915;47.174;14.680;2023-02-13T03:01:50;43.74;42.66;47.42;;
70454;Laerm;57915;47.174;14.680;2023-02-13T03:03:14;43.80;42.42;46.65;;
70454;Laerm;57915;47.174;14.680;2023-02-13T03:04:35;50.35;42.43;63.54;;
70454;Laerm;57915;47.174;14.680;2023-02-13T03:05:55;45.76;42.61;54.69;;
70454;Laerm;57915;47.174;14.680;2023-02-13T03:07:14;49.04;42.70;65.76;;
70454;Laerm;57915;47.174;14.680;2023-02-13T03:08:16;58.81;43.01;68.99;;
70454;Laerm;57915;47.174;14.680;2023-02-13T03:09:38;55.98;42.97;69.76;;
70454;Laerm;57915;47.174;14.680;2023-02-13T03:10:57;59.07;42.72;74.41;;
70454;Laerm;57915;47.174;14.680;2023-02-13T03:12:18;43.96;42.68;45.71;;
70454;Laerm;57915;47.174;14.680;2023-02-13T03:13:41;45.13;43.27;49.38;;
70454;Laerm;57915;47.174;14.680;2023-02-13T03:14:44;58.81;44.17;69.20;;
70454;Laerm;57915;47.174;14.680;2023-02-13T03:15:45;56.88;43.32;70.20;;
70454;Laerm;57915;47.174;14.680;2023-02-13T03:17:01;44.23;43.00;45.77;;
70454;Laerm;57915;47.174;14.680;2023-02-13T03:18:22;56.48;42.87;70.32;;
70454;Laerm;57915;47.174;14.680;2023-02-13T03:21:15;51.86;42.77;65.74;;
70454;Laerm;57915;47.174;14.680;2023-02-13T03:22:36;44.70;42.89;51.94;;
70454;Laerm;57915;47.174;14.680;2023-02-13T03:23:44;55.42;42.94;68.13;;
70454;Laerm;57915;47.174;14.680;2023-02-13T03:24:50;56.26;42.62;69.55;;
70454;Laerm;57915;47.174;14.680;2023-02-13T03:26:06;61.66;43.48;71.79;;
70454;Laerm;57915;47.174;14.680;2023-02-13T03:27:15;49.93;42.41;68.09;;
70454;Laerm;57915;47.174;14.680;2023-02-13T03:28:44;55.82;42.57;68.80;;
70454;Laerm;57915;47.174;14.680;2023-02-13T03:30:22;44.04;42.45;47.11;;
70454;Laerm;57915;47.174;14.680;2023-02-13T03:31:27;55.49;42.70;69.67;;
70454;Laerm;57915;47.174;14.680;2023-02-13T03:32:34;57.75;42.47;71.17;;
70454;Laerm;57915;47.174;14.680;2023-02-13T03:33:43;57.48;42.49;70.77;;
70454;Laerm;57915;47.174;14.680;2023-02-13T03:34:51;43.69;42.21;45.12;;
70454;Laerm;57915;47.174;14.680;2023-02-13T03:36:16;56.83;42.52;70.34;;
70454;Laerm;57915;47.174;14.680;2023-02-13T03:37:39;63.41;43.17;75.98;;
70454;Laerm;57915;47.174;14.680;2023-02-13T03:38:56;60.89;43.52;72.05;;
70454;Laerm;57915;47.174;14.680;2023-02-13T03:40:00;62.78;45.79;73.07;;
70454;Laerm;57915;47.174;14.680;2023-02-13T03:41:03;51.36;43.03;63.91;;
70454;Laerm;57915;47.174;14.680;2023-02-13T03:42:22;58.80;43.62;69.95;;
70454;Laerm;57915;47.174;14.680;2023-02-13T03:43:28;57.15;44.74;70.42;;
70454;Laerm;57915;47.174;14.680;2023-02-13T03:44:31;60.66;43.52;72.44;;
70454;Laerm;57915;47.174;14.680;2023-02-13T03:45:35;58.91;45.12;69.80;;
70454;Laerm;57915;47.174;14.680;2023-02-13T03:46:57;60.17;42.59;73.23;;
70454;Laerm;57915;47.174;14.680;2023-02-13T03:47:59;43.59;42.52;46.26;;
70454;Laerm;57915;47.174;14.680;2023-02-13T03:49:23;44.37;42.70;47.43;;
70454;Laerm;57915;47.174;14.680;2023-02-13T03:50:44;44.74;43.06;47.96;;
70454;Laerm;57915;47.174;14.680;2023-02-13T03:51:46;58.83;43.80;69.88;;
70454;Laerm;57915;47.174;14.680;2023-02-13T03:52:50;60.93;43.43;75.37;;
70454;Laerm;57915;47.174;14.680;2023-02-13T03:53:53;52.72;43.19;65.68;;
70454;Laerm;57915;47.174;14.680;2023-02-13T03:54:57;45.33;42.93;56.01;;
70454;Laerm;57915;47.174;14.680;2023-02-13T03:56:17;56.68;42.83;70.47;;
70454;Laerm;57915;47.174;14.680;2023-02-13T03:57:38;58.92;43.30;72.29;;
70454;Laerm;57915;47.174;14.680;2023-02-13T03:58:58;45.98;43.55;50.76;;
70454;Laerm;57915;47.174;14.680;2023-02-13T04:00:15;45.11;43.27;49.70;;
70454;Laerm;57915;47.174;14.680;2023-02-13T04:01:16;45.21;43.29;52.06;;
70454;Laerm;57915;47.174;14.680;2023-02-13T04:02:19;61.02;43.42;72.42;;
70454;Laerm;57915;47.174;14.680;2023-02-13T04:03:23;52.27;43.15;70.26;;
70454;Laerm;57915;47.174;14.680;2023-02-13T04:04:29;51.76;43.12;66.26;;
70454;Laerm;57915;47.174;14.680;2023-02-13T04:05:35;59.22;43.86;70.46;;
70454;Laerm;57915;47.174;14.680;2023-02-13T04:06:40;45.61;43.32;52.50;;
70454;Laerm;57915;47.174;14.680;2023-02-13T04:07:42;58.50;43.78;68.53;;
70454;Laerm;57915;47.174;14.680;2023-02-13T04:08:44;56.40;43.46;68.13;;
70454;Laerm;57915;47.174;14.680;2023-02-13T04:09:45;45.96;43.85;52.51;;
70454;Laerm;57915;47.174;14.680;2023-02-13T04:10:48;44.73;43.13;50.37;;
70454;Laerm;57915;47.174;14.680;2023-02-13T04:11:52;47.62;43.28;60.34;;
70454;Laerm;57915;47.174;14.680;2023-02-13T04:12:58;61.28;45.25;74.37;;
70454;Laerm;57915;47.174;14.680;2023-02-13T04:14:00;55.55;44.59;70.31;;
70454;Laerm;57915;47.174;14.680;2023-02-13T04:15:03;56.32;44.75;68.62;;
70454;Laerm;57915;47.174;14.680;2023-02-13T04:16:09;57.71;44.52;69.24;;
70454;Laerm;57915;47.174;14.680;2023-02-13T04:17:11;56.67;44.10;68.19;;
70454;Laerm;57915;47.174;14.680;2023-02-13T04:18:15;49.29;44.54;61.85;;
70454;Laerm;57915;47.174;14.680;2023-02-13T04:19:18;60.26;45.66;70.71;;
70454;Laerm;57915;47.174;14.680;2023-02-13T04:20:21;62.97;45.74;72.77;;
70454;Laerm;57915;47.174;14.680;2023-02-13T04:21:22;59.89;44.81;70.54;;
70454;Laerm;57915;47.174;14.680;2023-02-13T04:22:23;48.25;44.75;54.13;;
70454;Laerm;57915;47.174;14.680;2023-02-13T04:23:25;59.84;44.27;70.93;;
70454;Laerm;57915;47.174;14.680;2023-02-13T04:24:25;61.78;43.99;70.37;;
70454;Laerm;57915;47.174;14.680;2023-02-13T04:25:27;61.27;44.63;74.49;;
70454;Laerm;57915;47.174;14.680;2023-02-13T04:26:30;61.26;44.65;72.09;;
70454;Laerm;57915;47.174;14.680;2023-02-13T04:27:32;57.64;44.61;68.44;;
70454;Laerm;57915;47.174;14.680;2023-02-13T04:28:33;60.48;44.54;72.77;;
70454;Laerm;57915;47.174;14.680;2023-02-13T04:29:34;59.23;44.38;69.93;;
70454;Laerm;57915;47.174;14.680;2023-02-13T04:30:35;52.66;45.33;64.33;;
70454;Laerm;57915;47.174;14.680;2023-02-13T04:31:36;54.40;45.12;65.58;;
70454;Laerm;57915;47.174;14.680;2023-02-13T04:32:37;64.60;46.76;74.91;;
70454;Laerm;57915;47.174;14.680;2023-02-13T04:33:38;62.87;44.61;77.34;;
70454;Laerm;57915;47.174;14.680;2023-02-13T04:34:39;63.50;46.88;72.27;;
70454;Laerm;57915;47.174;14.680;2023-02-13T04:35:42;61.80;47.70;71.82;;
70454;Laerm;57915;47.174;14.680;2023-02-13T04:36:42;65.14;44.90;77.23;;
70454;Laerm;57915;47.174;14.680;2023-02-13T04:37:44;62.94;46.40;70.93;;
70454;Laerm;57915;47.174;14.680;2023-02-13T04:38:45;64.27;47.99;71.91;;
70454;Laerm;57915;47.174;14.680;2023-02-13T04:39:45;50.49;44.82;60.27;;
70454;Laerm;57915;47.174;14.680;2023-02-13T04:40:47;63.88;44.81;74.65;;
70454;Laerm;57915;47.174;14.680;2023-02-13T04:41:47;64.02;49.44;72.93;;
70454;Laerm;57915;47.174;14.680;2023-02-13T04:42:49;64.23;48.59;73.10;;
70454;Laerm;57915;47.174;14.680;2023-02-13T04:43:49;57.11;43.74;70.71;;
70454;Laerm;57915;47.174;14.680;2023-02-13T04:44:52;60.46;44.97;72.68;;
70454;Laerm;57915;47.174;14.680;2023-02-13T04:45:52;57.85;44.31;71.89;;
70454;Laerm;57915;47.174;14.680;2023-02-13T04:46:54;62.14;45.33;72.83;;
70454;Laerm;57915;47.174;14.680;2023-02-13T04:47:55;62.89;44.90;71.57;;
70454;Laerm;57915;47.174;14.680;2023-02-13T04:48:56;60.76;44.76;72.99;;
70454;Laerm;57915;47.174;14.680;2023-02-13T04:49:57;61.99;44.67;73.62;;
70454;Laerm;57915;47.174;14.680;2023-02-13T04:51:00;58.36;44.65;70.25;;
70454;Laerm;57915;47.174;14.680;2023-02-13T04:52:00;63.15;44.13;75.14;;
70454;Laerm;57915;47.174;14.680;2023-02-13T04:53:02;55.60;43.82;68.86;;
70454;Laerm;57915;47.174;14.680;2023-02-13T04:54:02;56.78;44.57;68.39;;
70454;Laerm;57915;47.174;14.680;2023-02-13T04:55:04;65.58;44.71;75.34;;
70454;Laerm;57915;47.174;14.680;2023-02-13T04:56:05;61.47;43.88;74.41;;
70454;Laerm;57915;47.174;14.680;2023-02-13T04:57:06;57.16;44.17;70.79;;
70454;Laerm;57915;47.174;14.680;2023-02-13T04:58:07;53.75;46.62;63.80;;
70454;Laerm;57915;47.174;14.680;2023-02-13T04:59:08;60.14;47.74;71.70;;
70454;Laerm;57915;47.174;14.680;2023-02-13T05:00:09;59.87;44.31;73.03;;
70454;Laerm;57915;47.174;14.680;2023-02-13T05:01:11;61.87;44.70;75.53;;
70454;Laerm;57915;47.174;14.680;2023-02-13T05:02:12;58.18;44.12;69.69;;
70454;Laerm;57915;47.174;14.680;2023-02-13T05:03:13;46.83;44.19;57.23;;
70454;Laerm;57915;47.174;14.680;2023-02-13T05:04:14;45.82;43.78;53.07;;
70454;Laerm;57915;47.174;14.680;2023-02-13T05:05:16;54.64;44.50;68.14;;
70454;Laerm;57915;47.174;14.680;2023-02-13T05:06:18;56.93;44.30;70.49;;
70454;Laerm;57915;47.174;14.680;2023-02-13T05:07:20;62.27;45.86;72.64;;
70454;Laerm;57915;47.174;14.680;2023-02-13T05:08:20;55.06;44.68;67.94;;
70454;Laerm;57915;47.174;14.680;2023-02-13T05:09:21;59.10;46.07;71.33;;
70454;Laerm;57915;47.174;14.680;2023-02-13T05:10:22;52.61;45.07;64.51;;
70454;Laerm;57915;47.174;14.680;2023-02-13T05:11:23;61.91;46.59;71.66;;
70454;Laerm;57915;47.174;14.680;2023-02-13T05:12:24;62.07;45.93;70.62;;
70454;Laerm;57915;47.174;14.680;2023-02-13T05:13:25;64.30;45.57;73.16;;
70454;Laerm;57915;47.174;14.680;2023-02-13T05:14:26;61.43;47.23;74.12;;
70454;Laerm;57915;47.174;14.680;2023-02-13T05:15:27;58.73;46.43;70.02;;
70454;Laerm;57915;47.174;14.680;2023-02-13T05:16:28;60.06;44.81;69.48;;
70454;Laerm;57915;47.174;14.680;2023-02-13T05:17:29;60.01;44.22;71.10;;
70454;Laerm;57915;47.174;14.680;2023-02-13T05:18:30;62.38;44.52;73.50;;
70454;Laerm;57915;47.174;14.680;2023-02-13T05:19:31;61.90;44.16;73.02;;
70454;Laerm;57915;47.174;14.680;2023-02-13T05:20:31;65.58;47.56;73.53;;
70454;Laerm;57915;47.174;14.680;2023-02-13T05:21:34;56.29;45.03;70.76;;
70454;Laerm;57915;47.174;14.680;2023-02-13T05:22:53;63.10;45.24;74.28;;
70454;Laerm;57915;47.174;14.680;2023-02-13T05:24:15;60.53;44.95;73.57;;
70454;Laerm;57915;47.174;14.680;2023-02-13T05:25:15;46.47;44.55;55.55;;
70454;Laerm;57915;47.174;14.680;2023-02-13T05:26:17;57.39;44.35;70.80;;
70454;Laerm;57915;47.174;14.680;2023-02-13T05:27:17;60.30;43.73;73.22;;
70454;Laerm;57915;47.174;14.680;2023-02-13T05:28:19;53.96;44.94;65.85;;
70454;Laerm;57915;47.174;14.680;2023-02-13T05:29:38;59.84;44.06;69.21;;
70454;Laerm;57915;47.174;14.680;2023-02-13T05:30:39;62.30;44.57;75.14;;
70454;Laerm;57915;47.174;14.680;2023-02-13T05:31:40;62.62;44.81;73.28;;
70454;Laerm;57915;47.174;14.680;2023-02-13T05:32:41;59.34;45.72;68.98;;
70454;Laerm;57915;47.174;14.680;2023-02-13T05:33:42;60.01;46.39;69.98;;
70454;Laerm;57915;47.174;14.680;2023-02-13T05:34:43;57.55;43.88;70.21;;
70454;Laerm;57915;47.174;14.680;2023-02-13T05:35:45;61.66;44.52;70.76;;
70454;Laerm;57915;47.174;14.680;2023-02-13T05:36:47;62.90;44.78;73.14;;
70454;Laerm;57915;47.174;14.680;2023-02-13T05:37:48;62.49;44.93;72.31;;
70454;Laerm;57915;47.174;14.680;2023-02-13T05:38:49;57.35;44.82;69.99;;
70454;Laerm;57915;47.174;14.680;2023-02-13T05:39:51;61.35;47.82;70.84;;
70454;Laerm;57915;47.174;14.680;2023-02-13T05:40:51;46.43;44.53;50.62;;
70454;Laerm;57915;47.174;14.680;2023-02-13T05:41:52;54.86;45.10;66.66;;
70454;Laerm;57915;47.174;14.680;2023-02-13T05:42:53;47.51;44.97;54.83;;
70454;Laerm;57915;47.174;14.680;2023-02-13T05:43:55;59.66;45.86;69.21;;
70454;Laerm;57915;47.174;14.680;2023-02-13T05:44:55;57.76;45.32;69.06;;
70454;Laerm;57915;47.174;14.680;2023-02-13T05:46:00;61.74;45.29;71.44;;
70454;Laerm;57915;47.174;14.680;2023-02-13T05:47:00;61.06;46.16;73.42;;
70454;Laerm;57915;47.174;14.680;2023-02-13T05:48:02;60.47;45.84;71.53;;
70454;Laerm;57915;47.174;14.680;2023-02-13T05:49:02;62.12;47.19;69.50;;
70454;Laerm;57915;47.174;14.680;2023-02-13T05:50:04;65.56;47.47;76.25;;
70454;Laerm;57915;47.174;14.680;2023-02-13T05:51:05;59.91;48.13;70.74;;
70454;Laerm;57915;47.174;14.680;2023-02-13T05:52:08;56.25;46.78;66.20;;
70454;Laerm;57915;47.174;14.680;2023-02-13T05:53:10;54.18;47.19;62.41;;
70454;Laerm;57915;47.174;14.680;2023-02-13T05:54:10;61.60;45.96;74.06;;
70454;Laerm;57915;47.174;14.680;2023-02-13T05:55:12;59.71;46.42;71.09;;
70454;Laerm;57915;47.174;14.680;2023-02-13T05:56:12;59.74;45.41;70.31;;
70454;Laerm;57915;47.174;14.680;2023-02-13T05:57:14;61.38;46.12;73.21;;
70454;Laerm;57915;47.174;14.680;2023-02-13T05:58:14;61.17;47.84;71.77;;
70454;Laerm;57915;47.174;14.680;2023-02-13T05:59:16;62.86;48.88;72.97;;
70454;Laerm;57915;47.174;14.680;2023-02-13T06:00:16;59.61;46.05;69.49;;
70454;Laerm;57915;47.174;14.680;2023-02-13T06:01:18;61.15;46.19;72.30;;